createdAt,value
2018-11-05T00:02:11.353Z,8.20
2018-11-05T00:04:40.293Z,8.20
2018-11-05T00:07:08.665Z,8.20
2018-11-05T00:09:36.986Z,8.30
2018-11-05T00:12:05.962Z,8.30
2018-11-05T00:14:34.329Z,8.30
2018-11-05T00:17:02.833Z,8.30
2018-11-05T00:19:31.148Z,8.20
2018-11-05T00:21:59.498Z,8.20
2018-11-05T00:24:27.893Z,8.20
2018-11-05T00:26:56.231Z,8.20
2018-11-05T00:29:24.545Z,8.30
2018-11-05T00:31:52.870Z,8.30
2018-11-05T00:34:21.184Z,8.30
2018-11-05T00:36:49.536Z,8.30
2018-11-05T00:39:17.914Z,8.30
2018-11-05T00:41:46.323Z,8.20
2018-11-05T00:44:14.662Z,8.20
2018-11-05T00:46:42.974Z,8.20
2018-11-05T00:49:11.293Z,8.20
2018-11-05T00:51:39.765Z,8.20
2018-11-05T00:54:08.094Z,8.20
2018-11-05T00:56:36.409Z,8.30
2018-11-05T00:59:04.922Z,8.30
2018-11-05T01:01:33.242Z,8.30
2018-11-05T01:04:01.553Z,8.30
2018-11-05T01:06:29.876Z,8.30
2018-11-05T01:08:58.200Z,8.40
2018-11-05T01:11:26.537Z,8.40
2018-11-05T01:13:54.862Z,8.40
2018-11-05T01:16:23.205Z,8.40
2018-11-05T01:18:51.496Z,8.40
2018-11-05T01:21:19.825Z,8.40
2018-11-05T01:23:48.201Z,8.40
2018-11-05T01:26:16.631Z,8.30
2018-11-05T01:28:44.936Z,8.30
2018-11-05T01:31:13.245Z,8.30
2018-11-05T01:33:41.572Z,8.20
2018-11-05T01:36:09.884Z,8.20
2018-11-05T01:38:38.198Z,8.30
2018-11-05T01:41:06.590Z,8.20
2018-11-05T01:43:34.948Z,8.20
2018-11-05T01:46:03.269Z,8.30
2018-11-05T01:48:31.599Z,8.20
2018-11-05T01:51:00.205Z,8.20
2018-11-05T01:53:28.553Z,8.20
2018-11-05T01:55:56.864Z,8.30
2018-11-05T01:58:25.250Z,8.30
2018-11-05T02:00:53.601Z,8.30
2018-11-05T02:03:22.006Z,8.30
2018-11-05T02:05:50.348Z,8.30
2018-11-05T02:08:18.647Z,8.30
2018-11-05T02:10:46.977Z,8.40
2018-11-05T02:13:15.333Z,8.50
2018-11-05T02:15:43.653Z,8.60
2018-11-05T02:18:11.961Z,8.60
2018-11-05T02:20:40.416Z,8.70
2018-11-05T02:23:08.744Z,8.70
2018-11-05T02:25:37.105Z,8.70
2018-11-05T02:28:05.773Z,8.70
2018-11-05T02:30:34.086Z,8.80
2018-11-05T02:33:02.442Z,8.90
2018-11-05T02:35:30.758Z,9.00
2018-11-05T02:37:59.090Z,8.90
2018-11-05T02:40:27.713Z,8.90
2018-11-05T02:42:56.024Z,9.00
2018-11-05T02:45:24.364Z,9.00
2018-11-05T02:47:52.741Z,9.00
2018-11-05T02:50:22.028Z,9.00
2018-11-05T02:52:50.402Z,9.00
2018-11-05T02:55:18.721Z,9.00
2018-11-05T02:57:47.079Z,9.00
2018-11-05T03:00:17.528Z,8.90
2018-11-05T03:02:45.918Z,8.90
2018-11-05T03:05:17.409Z,8.90
2018-11-05T03:07:46.469Z,8.80
2018-11-05T03:10:14.932Z,8.80
2018-11-05T03:12:43.828Z,8.80
2018-11-05T03:15:14.363Z,8.80
2018-11-05T03:17:42.755Z,8.80
2018-11-05T03:20:12.108Z,8.80
2018-11-05T03:22:41.716Z,8.80
2018-11-05T03:25:10.097Z,8.80
2018-11-05T03:27:38.784Z,8.80
2018-11-05T03:30:10.253Z,8.80
2018-11-05T03:32:38.604Z,8.70
2018-11-05T03:35:07.689Z,8.70
2018-11-05T03:37:36.384Z,8.60
2018-11-05T03:40:05.265Z,8.60
2018-11-05T03:42:33.585Z,8.50
2018-11-05T03:45:01.939Z,8.50
2018-11-05T03:47:30.346Z,8.50
2018-11-05T03:49:59.181Z,8.60
2018-11-05T03:52:27.681Z,8.50
2018-11-05T03:54:55.996Z,8.50
2018-11-05T03:57:24.325Z,8.40
2018-11-05T03:59:52.641Z,8.40
2018-11-05T04:02:20.961Z,8.40
2018-11-05T04:04:49.446Z,8.40
2018-11-05T04:07:17.776Z,8.40
2018-11-05T04:09:46.301Z,8.40
2018-11-05T04:12:14.627Z,8.40
2018-11-05T04:14:43.010Z,8.40
2018-11-05T04:17:11.333Z,8.40
2018-11-05T04:19:39.912Z,8.40
2018-11-05T04:22:08.307Z,8.40
2018-11-05T04:24:36.648Z,8.40
2018-11-05T04:27:05.644Z,8.40
2018-11-05T04:29:34.002Z,8.50
2018-11-05T04:32:02.377Z,8.50
2018-11-05T04:34:31.328Z,8.60
2018-11-05T04:36:59.653Z,8.60
2018-11-05T04:39:27.948Z,8.60
2018-11-05T04:41:56.264Z,8.70
2018-11-05T04:44:25.297Z,8.80
2018-11-05T04:46:53.622Z,8.80
2018-11-05T04:49:22.058Z,8.80
2018-11-05T04:51:50.387Z,8.90
2018-11-05T04:54:18.742Z,8.90
2018-11-05T04:56:47.781Z,8.90
2018-11-05T04:59:16.123Z,9.00
2018-11-05T05:01:44.498Z,9.00
2018-11-05T05:04:12.820Z,9.00
2018-11-05T05:06:41.265Z,9.00
2018-11-05T05:09:11.268Z,9.10
2018-11-05T05:11:39.599Z,9.20
2018-11-05T05:14:08.428Z,9.30
2018-11-05T05:16:37.281Z,9.30
2018-11-05T05:19:05.616Z,9.30
2018-11-05T05:21:33.938Z,9.20
2018-11-05T05:24:02.707Z,9.30
2018-11-05T05:26:31.048Z,9.30
2018-11-05T05:28:59.384Z,9.40
2018-11-05T05:31:27.782Z,9.40
2018-11-05T05:33:56.115Z,9.40
2018-11-05T05:36:25.204Z,9.50
2018-11-05T05:38:53.496Z,9.50
2018-11-05T05:41:21.835Z,9.50
2018-11-05T05:43:50.148Z,9.60
2018-11-05T05:46:18.531Z,9.60
2018-11-05T05:48:46.843Z,9.60
2018-11-05T05:51:15.228Z,9.70
2018-11-05T05:53:44.189Z,9.70
2018-11-05T05:56:12.553Z,9.70
2018-11-05T05:58:40.865Z,9.70
2018-11-05T06:01:09.319Z,9.70
2018-11-05T06:03:38.525Z,9.70
2018-11-05T06:06:07.231Z,9.80
2018-11-05T06:08:35.494Z,9.80
2018-11-05T06:11:03.830Z,9.90
2018-11-05T06:13:32.162Z,9.90
2018-11-05T06:16:00.541Z,9.90
2018-11-05T06:18:28.833Z,10.00
2018-11-05T06:20:57.149Z,10.00
2018-11-05T06:23:25.551Z,10.00
2018-11-05T06:25:53.806Z,10.10
2018-11-05T06:28:22.201Z,10.10
2018-11-05T06:30:50.528Z,10.10
2018-11-05T06:33:18.949Z,10.10
2018-11-05T06:35:47.249Z,10.20
2018-11-05T06:38:15.586Z,10.20
2018-11-05T06:40:43.901Z,10.20
2018-11-05T06:43:12.214Z,10.30
2018-11-05T06:45:40.557Z,10.40
2018-11-05T06:48:08.921Z,10.40
2018-11-05T06:50:38.020Z,10.40
2018-11-05T06:53:07.024Z,10.40
2018-11-05T06:55:35.353Z,10.40
2018-11-05T06:58:03.719Z,10.50
2018-11-05T07:00:32.096Z,10.50
2018-11-05T07:03:00.443Z,10.60
2018-11-05T07:05:28.755Z,10.60
2018-11-05T07:07:57.072Z,10.60
2018-11-05T07:10:25.414Z,10.60
2018-11-05T07:12:53.769Z,10.70
2018-11-05T07:15:22.083Z,10.80
2018-11-05T07:17:50.653Z,10.70
2018-11-05T07:20:20.998Z,10.80
2018-11-05T07:22:50.778Z,10.80
2018-11-05T07:25:19.990Z,10.80
2018-11-05T07:27:49.162Z,10.80
2018-11-05T07:30:19.410Z,10.80
2018-11-05T07:32:48.549Z,10.90
2018-11-05T07:35:16.897Z,10.90
2018-11-05T07:37:45.221Z,11.00
2018-11-05T07:40:14.857Z,11.00
2018-11-05T07:42:43.187Z,11.10
2018-11-05T07:45:13.729Z,11.20
2018-11-05T07:47:42.868Z,11.20
2018-11-05T07:50:12.623Z,11.20
2018-11-05T07:52:41.024Z,11.30
2018-11-05T07:55:11.035Z,11.40
2018-11-05T07:57:40.427Z,11.40
2018-11-05T08:00:15.744Z,11.40
2018-11-05T08:02:44.701Z,11.40
2018-11-05T08:05:13.308Z,11.50
2018-11-05T08:07:41.613Z,11.50
2018-11-05T08:10:10.399Z,11.50
2018-11-05T08:12:39.868Z,11.50
2018-11-05T08:15:10.094Z,11.50
2018-11-05T08:17:38.441Z,11.50
2018-11-05T08:20:07.209Z,11.70
2018-11-05T08:22:35.627Z,12.00
2018-11-05T08:25:04.091Z,11.80
2018-11-05T08:27:32.430Z,11.90
2018-11-05T08:30:01.375Z,11.80
2018-11-05T08:32:29.780Z,11.90
2018-11-05T08:34:58.097Z,11.80
2018-11-05T08:37:26.446Z,11.90
2018-11-05T08:39:54.865Z,11.90
2018-11-05T08:42:23.310Z,11.90
2018-11-05T08:44:51.617Z,11.90
2018-11-05T08:47:19.941Z,11.90
2018-11-05T08:49:48.642Z,11.90
2018-11-05T08:52:16.961Z,11.90
2018-11-05T08:54:45.253Z,11.90
2018-11-05T08:57:13.585Z,11.90
2018-11-05T08:59:41.881Z,11.90
2018-11-05T09:02:10.193Z,11.90
2018-11-05T09:04:38.531Z,12.00
2018-11-05T09:07:06.783Z,12.10
2018-11-05T09:09:35.149Z,12.10
2018-11-05T09:12:03.527Z,12.10
2018-11-05T09:14:32.471Z,12.10
2018-11-05T09:17:00.780Z,12.20
2018-11-05T09:19:29.099Z,12.20
2018-11-05T09:21:57.421Z,12.20
2018-11-05T09:24:26.080Z,12.20
2018-11-05T09:26:54.368Z,12.30
2018-11-05T09:29:23.309Z,12.30
2018-11-05T09:31:51.596Z,12.30
2018-11-05T09:34:19.916Z,12.40
2018-11-05T09:36:48.244Z,12.40
2018-11-05T09:39:16.602Z,12.50
2018-11-05T09:41:45.560Z,12.50
2018-11-05T09:44:13.861Z,12.60
2018-11-05T09:46:42.214Z,12.70
2018-11-05T09:49:10.543Z,12.80
2018-11-05T09:51:39.217Z,12.90
2018-11-05T09:54:07.513Z,12.90
2018-11-05T09:56:35.833Z,12.90
2018-11-05T09:59:04.273Z,12.90
2018-11-05T10:01:32.596Z,13.00
2018-11-05T10:04:00.933Z,13.20
2018-11-05T10:06:29.212Z,13.30
2018-11-05T10:08:58.210Z,13.30
2018-11-05T10:11:26.519Z,13.20
2018-11-05T10:13:54.832Z,13.20
2018-11-05T10:16:23.274Z,13.00
2018-11-05T10:18:51.569Z,13.00
2018-11-05T10:21:19.878Z,13.30
2018-11-05T10:23:48.744Z,13.30
2018-11-05T10:26:17.111Z,13.60
2018-11-05T10:28:45.407Z,13.90
2018-11-05T10:31:17.952Z,13.90
2018-11-05T10:33:50.883Z,13.60
2018-11-05T10:36:19.263Z,13.80
2018-11-05T10:38:47.566Z,13.70
2018-11-05T10:41:16.013Z,13.50
2018-11-05T10:43:44.336Z,13.50
2018-11-05T10:46:12.688Z,13.50
2018-11-05T10:48:41.021Z,13.40
2018-11-05T10:51:09.394Z,13.40
2018-11-05T10:53:37.629Z,13.40
2018-11-05T10:56:06.314Z,13.40
2018-11-05T10:58:34.641Z,13.40
2018-11-05T11:01:08.268Z,14.00
2018-11-05T11:03:38.012Z,14.60
2018-11-05T11:06:08.086Z,15.10
2018-11-05T11:08:36.404Z,15.10
2018-11-05T11:11:05.103Z,14.90
2018-11-05T11:13:33.412Z,15.10
2018-11-05T11:16:01.721Z,15.50
2018-11-05T11:18:30.100Z,15.40
2018-11-05T11:20:58.410Z,15.50
2018-11-05T11:23:26.784Z,15.50
2018-11-05T11:25:55.090Z,15.40
2018-11-05T11:28:23.435Z,15.30
2018-11-05T11:30:52.124Z,15.30
2018-11-05T11:33:20.456Z,15.10
2018-11-05T11:35:48.821Z,14.70
2018-11-05T11:38:17.113Z,14.60
2018-11-05T11:40:45.431Z,14.80
2018-11-05T11:43:13.729Z,15.00
2018-11-05T11:45:42.066Z,15.40
2018-11-05T11:48:10.369Z,15.80
2018-11-05T11:50:38.748Z,16.00
2018-11-05T11:53:07.149Z,16.40
2018-11-05T11:55:35.412Z,16.50
2018-11-05T11:58:03.732Z,16.30
2018-11-05T12:00:32.077Z,16.20
2018-11-05T12:03:00.407Z,16.40
2018-11-05T12:05:29.174Z,16.50
2018-11-05T12:07:57.350Z,16.60
2018-11-05T12:10:25.666Z,16.50
2018-11-05T12:12:54.449Z,16.00
2018-11-05T12:15:23.392Z,16.00
2018-11-05T12:17:52.537Z,16.30
2018-11-05T12:20:22.045Z,16.30
2018-11-05T12:22:50.694Z,16.60
2018-11-05T12:25:19.080Z,16.90
2018-11-05T12:27:47.383Z,17.00
2018-11-05T12:30:17.723Z,17.10
2018-11-05T12:32:46.801Z,17.30
2018-11-05T12:35:15.149Z,16.60
2018-11-05T12:37:44.645Z,16.40
2018-11-05T12:40:14.478Z,16.00
2018-11-05T12:42:43.709Z,15.60
2018-11-05T12:45:12.175Z,15.30
2018-11-05T12:47:40.534Z,15.20
2018-11-05T12:50:14.794Z,15.10
2018-11-05T12:52:44.119Z,15.00
2018-11-05T12:55:12.480Z,14.90
2018-11-05T12:57:41.576Z,15.00
2018-11-05T13:00:12.736Z,15.20
2018-11-05T13:02:41.060Z,15.30
2018-11-05T13:05:10.202Z,15.40
2018-11-05T13:07:38.563Z,15.80
2018-11-05T13:10:09.804Z,16.40
2018-11-05T13:12:38.181Z,16.70
2018-11-05T13:15:07.137Z,17.00
2018-11-05T13:17:35.512Z,17.10
2018-11-05T13:20:03.893Z,17.40
2018-11-05T13:22:32.210Z,16.90
2018-11-05T13:25:00.525Z,16.80
2018-11-05T13:27:28.939Z,17.00
2018-11-05T13:29:57.236Z,16.90
2018-11-05T13:32:25.602Z,16.70
2018-11-05T13:34:53.947Z,16.90
2018-11-05T13:37:22.521Z,17.40
2018-11-05T13:39:50.993Z,17.80
2018-11-05T13:42:19.331Z,17.70
2018-11-05T13:44:47.858Z,17.70
2018-11-05T13:47:16.836Z,17.60
2018-11-05T13:49:44.678Z,17.30
2018-11-05T13:52:12.953Z,17.70
2018-11-05T13:54:41.834Z,17.90
2018-11-05T13:57:10.165Z,17.60
2018-11-05T13:59:38.493Z,17.20
2018-11-05T14:02:06.838Z,17.00
2018-11-05T14:04:35.161Z,16.90
2018-11-05T14:07:03.610Z,16.50
2018-11-05T14:09:32.089Z,16.20
2018-11-05T14:12:00.402Z,16.20
2018-11-05T14:14:28.794Z,16.10
2018-11-05T14:16:57.284Z,15.80
2018-11-05T14:19:25.905Z,15.80
2018-11-05T14:21:54.216Z,15.70
2018-11-05T14:24:22.539Z,15.60
2018-11-05T14:26:51.097Z,15.50
2018-11-05T14:29:20.217Z,15.20
2018-11-05T14:31:47.910Z,15.00
2018-11-05T14:34:16.234Z,15.00
2018-11-05T14:36:44.671Z,14.90
2018-11-05T14:39:14.234Z,14.80
2018-11-05T14:41:42.853Z,14.80
2018-11-05T14:44:12.536Z,14.60
2018-11-05T14:46:40.856Z,14.60
2018-11-05T14:49:11.534Z,14.60
2018-11-05T14:51:39.868Z,14.50
2018-11-05T14:54:08.324Z,14.50
2018-11-05T14:56:36.775Z,14.50
2018-11-05T14:59:05.260Z,14.40
2018-11-05T15:01:33.563Z,14.30
2018-11-05T15:04:01.881Z,14.30
2018-11-05T15:06:30.302Z,14.30
2018-11-05T15:08:58.621Z,14.20
2018-11-05T15:11:26.952Z,14.10
2018-11-05T15:13:55.302Z,14.10
2018-11-05T15:16:23.613Z,14.00
2018-11-05T15:18:52.112Z,14.00
2018-11-05T15:21:20.289Z,13.90
2018-11-05T15:23:48.549Z,13.70
2018-11-05T15:26:17.500Z,13.70
2018-11-05T15:28:45.812Z,13.60
2018-11-05T15:31:14.134Z,13.50
2018-11-05T15:33:42.550Z,13.40
2018-11-05T15:36:10.845Z,13.40
2018-11-05T15:38:39.170Z,13.40
2018-11-05T15:41:07.480Z,13.40
2018-11-05T15:43:35.801Z,13.30
2018-11-05T15:46:04.291Z,13.30
2018-11-05T15:48:32.933Z,13.20
2018-11-05T15:51:01.357Z,13.20
2018-11-05T15:53:29.739Z,13.20
2018-11-05T15:55:57.892Z,13.20
2018-11-05T15:58:26.245Z,13.00
2018-11-05T16:00:54.545Z,13.00
2018-11-05T16:03:22.860Z,13.00
2018-11-05T16:05:51.203Z,13.00
2018-11-05T16:08:19.620Z,12.90
2018-11-05T16:10:47.985Z,12.80
2018-11-05T16:13:16.305Z,12.80
2018-11-05T16:15:44.649Z,12.70
2018-11-05T16:18:13.015Z,12.70
2018-11-05T16:20:42.239Z,12.60
2018-11-05T16:23:10.644Z,12.60
2018-11-05T16:25:39.530Z,12.50
2018-11-05T16:28:08.507Z,12.50
2018-11-05T16:30:36.887Z,12.50
2018-11-05T16:33:06.346Z,12.50
2018-11-05T16:35:35.896Z,12.50
2018-11-05T16:38:04.885Z,12.50
2018-11-05T16:40:33.671Z,12.40
2018-11-05T16:43:03.431Z,12.50
2018-11-05T16:45:33.017Z,12.50
2018-11-05T16:48:02.528Z,12.40
2018-11-05T16:50:31.859Z,12.40
2018-11-05T16:53:00.668Z,12.40
2018-11-05T16:55:30.143Z,12.40
2018-11-05T16:57:59.294Z,12.40
2018-11-05T17:00:28.803Z,12.40
2018-11-05T17:02:57.503Z,12.40
2018-11-05T17:05:26.162Z,12.30
2018-11-05T17:07:56.496Z,12.20
2018-11-05T17:10:25.776Z,12.20
2018-11-05T17:12:55.890Z,12.10
2018-11-05T17:15:25.587Z,12.10
2018-11-05T17:17:55.097Z,12.10
2018-11-05T17:20:24.967Z,12.10
2018-11-05T17:22:55.164Z,12.10
2018-11-05T17:25:24.938Z,12.10
2018-11-05T17:27:53.973Z,12.10
2018-11-05T17:30:23.376Z,12.10
2018-11-05T17:32:52.825Z,12.10
2018-11-05T17:35:21.170Z,12.00
2018-11-05T17:37:50.448Z,12.10
2018-11-05T17:40:20.856Z,12.00
2018-11-05T17:42:49.712Z,12.00
2018-11-05T17:45:19.467Z,11.90
2018-11-05T17:47:50.361Z,11.90
2018-11-05T17:50:20.966Z,11.90
2018-11-05T17:52:49.644Z,11.80
2018-11-05T17:55:18.225Z,11.80
2018-11-05T17:57:47.507Z,11.80
2018-11-05T18:00:17.299Z,11.80
2018-11-05T18:02:45.620Z,11.80
2018-11-05T18:05:14.265Z,11.80
2018-11-05T18:07:43.311Z,11.80
2018-11-05T18:10:11.646Z,11.70
2018-11-05T18:12:40.762Z,11.70
2018-11-05T18:15:11.812Z,11.70
2018-11-05T18:17:41.254Z,11.70
2018-11-05T18:20:11.214Z,11.70
2018-11-05T18:22:40.907Z,11.70
2018-11-05T18:25:14.316Z,11.60
2018-11-05T18:27:43.337Z,11.50
2018-11-05T18:30:12.804Z,11.50
2018-11-05T18:32:41.539Z,11.50
2018-11-05T18:35:11.219Z,11.40
2018-11-05T18:37:40.735Z,11.50
2018-11-05T18:40:10.910Z,11.40
2018-11-05T18:42:40.270Z,11.30
2018-11-05T18:45:08.892Z,11.40
2018-11-05T18:47:37.217Z,11.40
2018-11-05T18:50:08.794Z,11.40
2018-11-05T18:52:37.325Z,11.30
2018-11-05T18:55:07.736Z,11.30
2018-11-05T18:57:36.391Z,11.30
2018-11-05T19:00:07.129Z,11.30
2018-11-05T19:02:35.787Z,11.20
2018-11-05T19:05:04.317Z,11.20
2018-11-05T19:07:32.868Z,11.30
2018-11-05T19:10:01.888Z,11.30
2018-11-05T19:12:30.132Z,11.20
2018-11-05T19:14:58.470Z,11.10
2018-11-05T19:17:26.760Z,10.90
2018-11-05T19:19:55.955Z,10.90
2018-11-05T19:22:24.392Z,11.00
2018-11-05T19:24:52.783Z,11.00
2018-11-05T19:27:21.143Z,10.80
2018-11-05T19:29:50.759Z,10.70
2018-11-05T19:32:19.145Z,10.70
2018-11-05T19:34:48.088Z,10.60
2018-11-05T19:37:16.764Z,10.60
2018-11-05T19:39:45.097Z,10.60
2018-11-05T19:42:13.555Z,10.60
2018-11-05T19:44:42.092Z,10.50
2018-11-05T19:47:10.505Z,10.50
2018-11-05T19:49:38.955Z,10.50
2018-11-05T19:52:07.351Z,10.40
2018-11-05T19:54:35.690Z,10.40
2018-11-05T19:57:05.545Z,10.40
2018-11-05T19:59:34.281Z,10.40
2018-11-05T20:02:02.928Z,10.30
2018-11-05T20:04:31.246Z,10.30
2018-11-05T20:06:59.586Z,10.40
2018-11-05T20:09:27.996Z,10.40
2018-11-05T20:11:56.358Z,10.40
2018-11-05T20:14:24.713Z,10.40
2018-11-05T20:16:53.127Z,10.50
2018-11-05T20:19:21.410Z,10.30
2018-11-05T20:21:49.849Z,10.30
2018-11-05T20:24:18.913Z,10.40
2018-11-05T20:26:47.818Z,10.40
2018-11-05T20:29:16.152Z,10.30
2018-11-05T20:31:44.663Z,10.40
2018-11-05T20:34:13.456Z,10.40
2018-11-05T20:36:41.616Z,10.40
2018-11-05T20:39:10.895Z,10.40
2018-11-05T20:41:39.173Z,10.30
2018-11-05T20:44:07.549Z,10.30
2018-11-05T20:46:35.876Z,10.20
2018-11-05T20:49:04.221Z,10.20
2018-11-05T20:51:32.553Z,10.20
2018-11-05T20:54:01.771Z,10.20
2018-11-05T20:56:30.076Z,10.20
2018-11-05T20:58:58.429Z,10.30
2018-11-05T21:01:26.741Z,10.20
2018-11-05T21:03:55.073Z,10.20
2018-11-05T21:06:23.416Z,10.20
2018-11-05T21:08:51.728Z,10.10
2018-11-05T21:11:20.053Z,10.10
2018-11-05T21:13:48.369Z,10.10
2018-11-05T21:16:17.039Z,10.00
2018-11-05T21:18:45.366Z,10.00
2018-11-05T21:21:13.765Z,10.00
2018-11-05T21:23:42.044Z,10.00
2018-11-05T21:26:10.395Z,10.00
2018-11-05T21:28:39.373Z,10.00
2018-11-05T21:31:07.708Z,10.00
2018-11-05T21:33:36.081Z,10.00
2018-11-05T21:36:04.668Z,10.00
2018-11-05T21:38:34.592Z,10.00
2018-11-05T21:41:02.970Z,10.00
2018-11-05T21:43:31.277Z,9.90
2018-11-05T21:45:59.661Z,9.90
2018-11-05T21:48:27.973Z,10.00
2018-11-05T21:50:56.718Z,10.00
2018-11-05T21:53:25.030Z,10.00
2018-11-05T21:55:53.335Z,9.90
2018-11-05T21:58:21.661Z,9.90
2018-11-05T22:00:50.199Z,9.80
2018-11-05T22:03:19.053Z,9.80
2018-11-05T22:05:47.454Z,9.70
2018-11-05T22:08:15.752Z,9.70
2018-11-05T22:10:44.126Z,9.70
2018-11-05T22:13:12.500Z,9.70
2018-11-05T22:15:44.009Z,9.60
2018-11-05T22:18:12.363Z,9.50
2018-11-05T22:20:42.328Z,9.40
2018-11-05T22:23:11.311Z,9.40
2018-11-05T22:25:40.670Z,9.40
2018-11-05T22:28:09.063Z,9.50
2018-11-05T22:30:38.384Z,9.40
2018-11-05T22:33:07.017Z,9.30
2018-11-05T22:35:35.336Z,9.30
2018-11-05T22:38:03.788Z,9.30
2018-11-05T22:40:32.035Z,9.30
2018-11-05T22:43:00.335Z,9.40
2018-11-05T22:45:28.639Z,9.30
2018-11-05T22:47:56.969Z,9.40
2018-11-05T22:50:25.312Z,9.30
2018-11-05T22:52:53.653Z,9.20
2018-11-05T22:55:21.994Z,9.10
2018-11-05T22:57:50.305Z,9.20
2018-11-05T23:00:23.901Z,9.20
2018-11-05T23:02:57.474Z,9.20
2018-11-05T23:05:25.838Z,9.20
2018-11-05T23:07:55.135Z,9.10
2018-11-05T23:10:24.049Z,9.00
2018-11-05T23:12:52.391Z,9.10
2018-11-05T23:15:21.070Z,9.00
2018-11-05T23:17:49.762Z,9.00
2018-11-05T23:20:18.472Z,9.00
2018-11-05T23:22:46.821Z,8.90
2018-11-05T23:25:15.934Z,9.00
2018-11-05T23:27:44.240Z,8.90
2018-11-05T23:30:13.218Z,9.00
2018-11-05T23:32:41.698Z,9.00
2018-11-05T23:35:10.725Z,8.90
2018-11-05T23:37:39.868Z,9.00
2018-11-05T23:40:08.623Z,8.80
2018-11-05T23:42:37.744Z,8.80
2018-11-05T23:45:08.045Z,8.70
2018-11-05T23:47:36.464Z,8.70
2018-11-05T23:50:05.374Z,8.70
2018-11-05T23:52:33.685Z,8.70
2018-11-05T23:55:02.020Z,8.70
2018-11-05T23:57:30.329Z,8.70
2018-11-05T23:59:59.149Z,8.70
